sensor_id;sensor_type;location;lat;lon;timestamp;P1;durP1;ratioP1;P2;durP2;ratioP2
25988;SDS011;13778;48.236;9.894;2023-09-08T00:00:42;13.25;;;9.82;;
25988;SDS011;13778;48.236;9.894;2023-09-08T00:03:34;20.88;;;10.75;;
25988;SDS011;13778;48.236;9.894;2023-09-08T00:06:24;12.90;;;10.45;;
25988;SDS011;13778;48.236;9.894;2023-09-08T00:09:15;14.93;;;10.73;;
25988;SDS011;13778;48.236;9.894;2023-09-08T00:12:06;12.55;;;10.32;;
25988;SDS011;13778;48.236;9.894;2023-09-08T00:14:56;15.57;;;9.95;;
25988;SDS011;13778;48.236;9.894;2023-09-08T00:17:47;11.20;;;9.95;;
25988;SDS011;13778;48.236;9.894;2023-09-08T00:20:38;10.90;;;9.35;;
25988;SDS011;13778;48.236;9.894;2023-09-08T00:23:31;10.15;;;9.05;;
25988;SDS011;13778;48.236;9.894;2023-09-08T00:26:21;13.55;;;9.43;;
25988;SDS011;13778;48.236;9.894;2023-09-08T00:29:12;12.02;;;9.50;;
25988;SDS011;13778;48.236;9.894;2023-09-08T00:32:03;8.95;;;8.05;;
25988;SDS011;13778;48.236;9.894;2023-09-08T00:34:53;9.90;;;8.90;;
25988;SDS011;13778;48.236;9.894;2023-09-08T00:37:45;10.35;;;9.20;;
25988;SDS011;13778;48.236;9.894;2023-09-08T00:43:27;11.00;;;8.95;;
25988;SDS011;13778;48.236;9.894;2023-09-08T00:46:17;11.38;;;9.13;;
25988;SDS011;13778;48.236;9.894;2023-09-08T00:49:08;11.68;;;9.32;;
25988;SDS011;13778;48.236;9.894;2023-09-08T00:51:58;9.25;;;8.27;;
25988;SDS011;13778;48.236;9.894;2023-09-08T00:54:50;10.60;;;8.98;;
25988;SDS011;13778;48.236;9.894;2023-09-08T00:57:40;11.48;;;9.55;;
25988;SDS011;13778;48.236;9.894;2023-09-08T01:00:31;10.02;;;9.02;;
25988;SDS011;13778;48.236;9.894;2023-09-08T01:03:21;11.40;;;8.52;;
25988;SDS011;13778;48.236;9.894;2023-09-08T01:06:12;9.38;;;8.48;;
25988;SDS011;13778;48.236;9.894;2023-09-08T01:09:03;11.90;;;9.23;;
25988;SDS011;13778;48.236;9.894;2023-09-08T01:11:56;12.52;;;8.93;;
25988;SDS011;13778;48.236;9.894;2023-09-08T01:14:51;13.93;;;9.93;;
25988;SDS011;13778;48.236;9.894;2023-09-08T01:17:41;10.45;;;9.43;;
25988;SDS011;13778;48.236;9.894;2023-09-08T01:20:48;12.70;;;9.52;;
25988;SDS011;13778;48.236;9.894;2023-09-08T01:23:48;10.48;;;9.02;;
25988;SDS011;13778;48.236;9.894;2023-09-08T01:26:43;13.32;;;9.30;;
25988;SDS011;13778;48.236;9.894;2023-09-08T01:29:34;14.23;;;9.25;;
25988;SDS011;13778;48.236;9.894;2023-09-08T01:32:25;13.17;;;9.83;;
25988;SDS011;13778;48.236;9.894;2023-09-08T01:35:16;11.57;;;10.15;;
25988;SDS011;13778;48.236;9.894;2023-09-08T01:38:06;12.20;;;10.20;;
25988;SDS011;13778;48.236;9.894;2023-09-08T01:40:56;14.98;;;10.15;;
25988;SDS011;13778;48.236;9.894;2023-09-08T01:43:48;11.23;;;9.70;;
25988;SDS011;13778;48.236;9.894;2023-09-08T01:46:39;9.52;;;8.52;;
25988;SDS011;13778;48.236;9.894;2023-09-08T01:49:30;9.80;;;8.80;;
25988;SDS011;13778;48.236;9.894;2023-09-08T01:52:20;10.23;;;9.13;;
25988;SDS011;13778;48.236;9.894;2023-09-08T01:55:11;11.15;;;8.85;;
25988;SDS011;13778;48.236;9.894;2023-09-08T01:58:01;14.07;;;12.60;;
25988;SDS011;13778;48.236;9.894;2023-09-08T02:00:53;21.45;;;17.45;;
25988;SDS011;13778;48.236;9.894;2023-09-08T02:03:43;13.05;;;10.43;;
25988;SDS011;13778;48.236;9.894;2023-09-08T02:06:34;10.52;;;9.43;;
25988;SDS011;13778;48.236;9.894;2023-09-08T02:09:29;11.15;;;9.43;;
25988;SDS011;13778;48.236;9.894;2023-09-08T02:12:20;11.48;;;8.68;;
25988;SDS011;13778;48.236;9.894;2023-09-08T02:15:11;11.00;;;9.07;;
25988;SDS011;13778;48.236;9.894;2023-09-08T02:18:02;10.23;;;9.23;;
25988;SDS011;13778;48.236;9.894;2023-09-08T02:20:53;10.27;;;9.07;;
25988;SDS011;13778;48.236;9.894;2023-09-08T02:23:43;10.77;;;9.68;;
25988;SDS011;13778;48.236;9.894;2023-09-08T02:26:34;13.57;;;9.60;;
25988;SDS011;13778;48.236;9.894;2023-09-08T02:29:24;12.80;;;9.80;;
25988;SDS011;13778;48.236;9.894;2023-09-08T02:32:15;12.38;;;9.13;;
25988;SDS011;13778;48.236;9.894;2023-09-08T02:35:07;12.20;;;8.90;;
25988;SDS011;13778;48.236;9.894;2023-09-08T02:37:57;13.13;;;8.75;;
25988;SDS011;13778;48.236;9.894;2023-09-08T02:40:48;9.75;;;8.27;;
25988;SDS011;13778;48.236;9.894;2023-09-08T02:43:38;9.15;;;8.20;;
25988;SDS011;13778;48.236;9.894;2023-09-08T02:46:29;10.73;;;9.63;;
25988;SDS011;13778;48.236;9.894;2023-09-08T02:49:19;11.25;;;9.95;;
25988;SDS011;13778;48.236;9.894;2023-09-08T02:52:11;10.43;;;8.60;;
25988;SDS011;13778;48.236;9.894;2023-09-08T02:57:52;14.38;;;10.43;;
25988;SDS011;13778;48.236;9.894;2023-09-08T03:00:43;12.95;;;10.27;;
25988;SDS011;13778;48.236;9.894;2023-09-08T03:03:33;9.82;;;8.82;;
25988;SDS011;13778;48.236;9.894;2023-09-08T03:06:24;12.10;;;9.48;;
25988;SDS011;13778;48.236;9.894;2023-09-08T03:09:16;12.65;;;10.43;;
25988;SDS011;13778;48.236;9.894;2023-09-08T03:14:56;12.60;;;9.00;;
25988;SDS011;13778;48.236;9.894;2023-09-08T03:17:47;11.55;;;9.20;;
25988;SDS011;13778;48.236;9.894;2023-09-08T03:20:37;11.05;;;9.23;;
25988;SDS011;13778;48.236;9.894;2023-09-08T03:23:29;15.77;;;10.27;;
25988;SDS011;13778;48.236;9.894;2023-09-08T03:26:21;12.65;;;9.70;;
25988;SDS011;13778;48.236;9.894;2023-09-08T03:29:11;11.00;;;9.82;;
25988;SDS011;13778;48.236;9.894;2023-09-08T03:32:02;10.80;;;9.55;;
25988;SDS011;13778;48.236;9.894;2023-09-08T03:34:52;11.50;;;10.35;;
25988;SDS011;13778;48.236;9.894;2023-09-08T03:37:43;10.10;;;8.82;;
25988;SDS011;13778;48.236;9.894;2023-09-08T03:40:33;11.13;;;9.75;;
25988;SDS011;13778;48.236;9.894;2023-09-08T03:43:25;12.98;;;10.60;;
25988;SDS011;13778;48.236;9.894;2023-09-08T03:46:15;10.63;;;9.23;;
25988;SDS011;13778;48.236;9.894;2023-09-08T03:49:06;14.70;;;10.32;;
25988;SDS011;13778;48.236;9.894;2023-09-08T03:51:57;10.77;;;9.52;;
25988;SDS011;13778;48.236;9.894;2023-09-08T03:54:48;11.05;;;9.43;;
25988;SDS011;13778;48.236;9.894;2023-09-08T03:57:38;12.30;;;10.30;;
25988;SDS011;13778;48.236;9.894;2023-09-08T04:00:30;12.57;;;10.52;;
25988;SDS011;13778;48.236;9.894;2023-09-08T04:03:21;11.95;;;9.65;;
25988;SDS011;13778;48.236;9.894;2023-09-08T04:06:11;17.42;;;10.60;;
25988;SDS011;13778;48.236;9.894;2023-09-08T04:09:02;11.85;;;9.32;;
25988;SDS011;13778;48.236;9.894;2023-09-08T04:11:52;13.43;;;10.27;;
25988;SDS011;13778;48.236;9.894;2023-09-08T04:14:44;10.40;;;9.07;;
25988;SDS011;13778;48.236;9.894;2023-09-08T04:17:36;13.00;;;10.02;;
25988;SDS011;13778;48.236;9.894;2023-09-08T04:20:27;10.93;;;9.00;;
25988;SDS011;13778;48.236;9.894;2023-09-08T04:23:17;12.40;;;9.70;;
25988;SDS011;13778;48.236;9.894;2023-09-08T04:26:07;11.88;;;9.70;;
25988;SDS011;13778;48.236;9.894;2023-09-08T04:28:58;12.52;;;9.27;;
25988;SDS011;13778;48.236;9.894;2023-09-08T04:31:48;11.27;;;10.10;;
25988;SDS011;13778;48.236;9.894;2023-09-08T04:34:40;13.75;;;9.63;;
25988;SDS011;13778;48.236;9.894;2023-09-08T04:37:31;13.95;;;10.15;;
25988;SDS011;13778;48.236;9.894;2023-09-08T04:40:22;14.25;;;10.50;;
25988;SDS011;13778;48.236;9.894;2023-09-08T04:43:12;10.80;;;9.68;;
25988;SDS011;13778;48.236;9.894;2023-09-08T04:46:02;11.73;;;9.63;;
25988;SDS011;13778;48.236;9.894;2023-09-08T04:48:53;12.77;;;10.77;;
25988;SDS011;13778;48.236;9.894;2023-09-08T04:51:45;11.93;;;10.60;;
25988;SDS011;13778;48.236;9.894;2023-09-08T04:54:35;15.88;;;10.30;;
25988;SDS011;13778;48.236;9.894;2023-09-08T04:57:26;13.88;;;10.45;;
25988;SDS011;13778;48.236;9.894;2023-09-08T05:00:17;15.77;;;10.82;;
25988;SDS011;13778;48.236;9.894;2023-09-08T05:03:08;14.18;;;11.20;;
25988;SDS011;13778;48.236;9.894;2023-09-08T05:05:59;12.65;;;9.68;;
25988;SDS011;13778;48.236;9.894;2023-09-08T05:08:51;13.70;;;10.50;;
25988;SDS011;13778;48.236;9.894;2023-09-08T05:14:32;14.45;;;9.57;;
25988;SDS011;13778;48.236;9.894;2023-09-08T05:17:23;11.10;;;9.02;;
25988;SDS011;13778;48.236;9.894;2023-09-08T05:20:13;10.48;;;8.85;;
25988;SDS011;13778;48.236;9.894;2023-09-08T05:23:04;12.90;;;10.57;;
25988;SDS011;13778;48.236;9.894;2023-09-08T05:25:56;16.95;;;12.38;;
25988;SDS011;13778;48.236;9.894;2023-09-08T05:28:46;15.35;;;12.52;;
25988;SDS011;13778;48.236;9.894;2023-09-08T05:31:36;12.40;;;10.77;;
25988;SDS011;13778;48.236;9.894;2023-09-08T05:34:26;14.20;;;11.05;;
25988;SDS011;13778;48.236;9.894;2023-09-08T05:37:17;15.10;;;11.20;;
25988;SDS011;13778;48.236;9.894;2023-09-08T05:40:08;17.88;;;10.88;;
25988;SDS011;13778;48.236;9.894;2023-09-08T05:42:59;12.20;;;10.85;;
25988;SDS011;13778;48.236;9.894;2023-09-08T05:48:40;13.30;;;10.88;;
25988;SDS011;13778;48.236;9.894;2023-09-08T05:51:31;11.82;;;10.60;;
25988;SDS011;13778;48.236;9.894;2023-09-08T05:54:22;13.98;;;11.40;;
25988;SDS011;13778;48.236;9.894;2023-09-08T05:57:12;26.13;;;11.20;;
25988;SDS011;13778;48.236;9.894;2023-09-08T06:00:04;16.73;;;12.20;;
25988;SDS011;13778;48.236;9.894;2023-09-08T06:02:55;19.90;;;12.82;;
25988;SDS011;13778;48.236;9.894;2023-09-08T06:05:45;17.23;;;12.80;;
25988;SDS011;13778;48.236;9.894;2023-09-08T06:08:36;14.02;;;12.23;;
25988;SDS011;13778;48.236;9.894;2023-09-08T06:11:26;18.20;;;13.52;;
25988;SDS011;13778;48.236;9.894;2023-09-08T06:14:17;18.48;;;13.00;;
25988;SDS011;13778;48.236;9.894;2023-09-08T06:17:09;16.40;;;13.27;;
25988;SDS011;13778;48.236;9.894;2023-09-08T06:22:49;12.82;;;11.18;;
25988;SDS011;13778;48.236;9.894;2023-09-08T06:25:40;15.90;;;12.43;;
25988;SDS011;13778;48.236;9.894;2023-09-08T06:28:30;18.95;;;14.73;;
25988;SDS011;13778;48.236;9.894;2023-09-08T06:31:21;18.48;;;15.20;;
25988;SDS011;13778;48.236;9.894;2023-09-08T06:34:13;18.67;;;14.85;;
25988;SDS011;13778;48.236;9.894;2023-09-08T06:37:03;18.83;;;14.40;;
25988;SDS011;13778;48.236;9.894;2023-09-08T06:39:54;23.95;;;14.43;;
25988;SDS011;13778;48.236;9.894;2023-09-08T06:42:44;17.35;;;14.00;;
25988;SDS011;13778;48.236;9.894;2023-09-08T06:45:37;17.02;;;13.13;;
25988;SDS011;13778;48.236;9.894;2023-09-08T06:48:27;16.98;;;13.20;;
25988;SDS011;13778;48.236;9.894;2023-09-08T06:51:19;14.52;;;12.77;;
25988;SDS011;13778;48.236;9.894;2023-09-08T06:57:00;15.50;;;13.05;;
25988;SDS011;13778;48.236;9.894;2023-09-08T06:59:50;16.73;;;13.90;;
25988;SDS011;13778;48.236;9.894;2023-09-08T07:02:40;16.75;;;13.30;;
25988;SDS011;13778;48.236;9.894;2023-09-08T07:05:31;19.98;;;14.75;;
25988;SDS011;13778;48.236;9.894;2023-09-08T07:08:23;22.45;;;15.98;;
25988;SDS011;13778;48.236;9.894;2023-09-08T07:11:13;15.93;;;13.43;;
25988;SDS011;13778;48.236;9.894;2023-09-08T07:14:04;18.05;;;13.75;;
25988;SDS011;13778;48.236;9.894;2023-09-08T07:16:55;17.27;;;13.63;;
25988;SDS011;13778;48.236;9.894;2023-09-08T07:19:45;19.33;;;15.07;;
25988;SDS011;13778;48.236;9.894;2023-09-08T07:22:35;19.73;;;15.10;;
25988;SDS011;13778;48.236;9.894;2023-09-08T07:25:27;17.55;;;13.73;;
25988;SDS011;13778;48.236;9.894;2023-09-08T07:28:18;17.60;;;14.82;;
25988;SDS011;13778;48.236;9.894;2023-09-08T07:31:08;18.08;;;14.10;;
25988;SDS011;13778;48.236;9.894;2023-09-08T07:33:59;16.58;;;14.10;;
25988;SDS011;13778;48.236;9.894;2023-09-08T07:36:49;18.70;;;14.10;;
25988;SDS011;13778;48.236;9.894;2023-09-08T07:39:40;16.40;;;13.80;;
25988;SDS011;13778;48.236;9.894;2023-09-08T07:42:32;18.23;;;14.25;;
25988;SDS011;13778;48.236;9.894;2023-09-08T07:48:12;16.67;;;13.75;;
25988;SDS011;13778;48.236;9.894;2023-09-08T07:51:03;18.80;;;13.32;;
25988;SDS011;13778;48.236;9.894;2023-09-08T07:53:53;14.90;;;13.05;;
25988;SDS011;13778;48.236;9.894;2023-09-08T07:56:45;19.05;;;13.43;;
25988;SDS011;13778;48.236;9.894;2023-09-08T07:59:37;19.25;;;14.77;;
25988;SDS011;13778;48.236;9.894;2023-09-08T08:02:27;16.38;;;13.88;;
25988;SDS011;13778;48.236;9.894;2023-09-08T08:05:18;19.77;;;14.00;;
25988;SDS011;13778;48.236;9.894;2023-09-08T08:08:08;15.20;;;13.13;;
25988;SDS011;13778;48.236;9.894;2023-09-08T08:10:59;21.15;;;13.82;;
25988;SDS011;13778;48.236;9.894;2023-09-08T08:13:49;21.88;;;14.70;;
25988;SDS011;13778;48.236;9.894;2023-09-08T08:16:41;14.50;;;13.00;;
25988;SDS011;13778;48.236;9.894;2023-09-08T08:22:21;17.95;;;15.77;;
25988;SDS011;13778;48.236;9.894;2023-09-08T08:25:12;15.52;;;12.98;;
25988;SDS011;13778;48.236;9.894;2023-09-08T08:28:03;20.58;;;14.38;;
25988;SDS011;13778;48.236;9.894;2023-09-08T08:30:53;16.63;;;14.63;;
25988;SDS011;13778;48.236;9.894;2023-09-08T08:33:46;16.15;;;13.82;;
25988;SDS011;13778;48.236;9.894;2023-09-08T08:36:36;16.40;;;14.13;;
25988;SDS011;13778;48.236;9.894;2023-09-08T08:39:27;15.55;;;13.95;;
25988;SDS011;13778;48.236;9.894;2023-09-08T08:42:18;16.88;;;15.18;;
25988;SDS011;13778;48.236;9.894;2023-09-08T08:45:11;18.85;;;14.57;;
25988;SDS011;13778;48.236;9.894;2023-09-08T08:48:01;19.00;;;12.45;;
25988;SDS011;13778;48.236;9.894;2023-09-08T08:50:55;16.70;;;14.02;;
25988;SDS011;13778;48.236;9.894;2023-09-08T08:53:46;23.02;;;14.25;;
25988;SDS011;13778;48.236;9.894;2023-09-08T08:56:36;22.98;;;13.63;;
25988;SDS011;13778;48.236;9.894;2023-09-08T08:59:27;17.10;;;13.55;;
25988;SDS011;13778;48.236;9.894;2023-09-08T09:02:18;16.10;;;12.98;;
25988;SDS011;13778;48.236;9.894;2023-09-08T09:05:08;21.73;;;13.40;;
25988;SDS011;13778;48.236;9.894;2023-09-08T09:08:01;24.97;;;11.60;;
25988;SDS011;13778;48.236;9.894;2023-09-08T09:10:52;25.65;;;12.30;;
25988;SDS011;13778;48.236;9.894;2023-09-08T09:13:43;24.00;;;13.57;;
25988;SDS011;13778;48.236;9.894;2023-09-08T09:16:38;27.65;;;13.00;;
25988;SDS011;13778;48.236;9.894;2023-09-08T09:19:28;22.67;;;12.05;;
25988;SDS011;13778;48.236;9.894;2023-09-08T09:22:20;22.95;;;12.73;;
25988;SDS011;13778;48.236;9.894;2023-09-08T09:25:21;21.08;;;12.63;;
25988;SDS011;13778;48.236;9.894;2023-09-08T09:28:12;16.08;;;11.57;;
25988;SDS011;13778;48.236;9.894;2023-09-08T09:31:03;17.33;;;11.73;;
25988;SDS011;13778;48.236;9.894;2023-09-08T09:34:03;27.70;;;12.35;;
25988;SDS011;13778;48.236;9.894;2023-09-08T09:36:54;25.90;;;12.73;;
25988;SDS011;13778;48.236;9.894;2023-09-08T09:39:48;20.95;;;12.90;;
25988;SDS011;13778;48.236;9.894;2023-09-08T09:42:39;17.27;;;12.13;;
25988;SDS011;13778;48.236;9.894;2023-09-08T09:48:21;20.85;;;11.70;;
25988;SDS011;13778;48.236;9.894;2023-09-08T09:51:15;25.98;;;12.63;;
25988;SDS011;13778;48.236;9.894;2023-09-08T09:54:07;19.02;;;11.77;;
25988;SDS011;13778;48.236;9.894;2023-09-08T09:56:57;18.45;;;11.25;;
25988;SDS011;13778;48.236;9.894;2023-09-08T09:59:50;18.90;;;11.10;;
25988;SDS011;13778;48.236;9.894;2023-09-08T10:02:42;19.27;;;12.68;;
25988;SDS011;13778;48.236;9.894;2023-09-08T10:05:33;19.92;;;14.60;;
25988;SDS011;13778;48.236;9.894;2023-09-08T10:08:24;18.70;;;12.55;;
25988;SDS011;13778;48.236;9.894;2023-09-08T10:11:16;15.85;;;11.38;;
25988;SDS011;13778;48.236;9.894;2023-09-08T10:14:06;18.08;;;11.05;;
25988;SDS011;13778;48.236;9.894;2023-09-08T10:17:02;18.48;;;11.57;;
25988;SDS011;13778;48.236;9.894;2023-09-08T10:19:52;17.38;;;13.40;;
25988;SDS011;13778;48.236;9.894;2023-09-08T10:22:44;21.45;;;12.75;;
25988;SDS011;13778;48.236;9.894;2023-09-08T10:28:25;18.15;;;12.23;;
25988;SDS011;13778;48.236;9.894;2023-09-08T10:31:16;13.00;;;11.50;;
25988;SDS011;13778;48.236;9.894;2023-09-08T10:34:08;17.00;;;11.40;;
25988;SDS011;13778;48.236;9.894;2023-09-08T10:36:59;16.73;;;12.95;;
25988;SDS011;13778;48.236;9.894;2023-09-08T10:39:49;26.80;;;13.43;;
25988;SDS011;13778;48.236;9.894;2023-09-08T10:42:40;16.98;;;13.05;;
25988;SDS011;13778;48.236;9.894;2023-09-08T10:45:30;27.45;;;14.35;;
25988;SDS011;13778;48.236;9.894;2023-09-08T10:48:21;19.45;;;12.88;;
25988;SDS011;13778;48.236;9.894;2023-09-08T10:51:13;16.52;;;12.40;;
25988;SDS011;13778;48.236;9.894;2023-09-08T10:54:03;18.15;;;10.98;;
25988;SDS011;13778;48.236;9.894;2023-09-08T10:56:54;19.20;;;11.00;;
25988;SDS011;13778;48.236;9.894;2023-09-08T10:59:45;17.85;;;11.93;;
25988;SDS011;13778;48.236;9.894;2023-09-08T11:02:39;15.95;;;11.43;;
25988;SDS011;13778;48.236;9.894;2023-09-08T11:05:30;13.18;;;11.23;;
25988;SDS011;13778;48.236;9.894;2023-09-08T11:08:22;16.58;;;11.00;;
25988;SDS011;13778;48.236;9.894;2023-09-08T11:11:13;13.75;;;9.48;;
25988;SDS011;13778;48.236;9.894;2023-09-08T11:14:04;13.60;;;10.55;;
25988;SDS011;13778;48.236;9.894;2023-09-08T11:16:55;17.02;;;10.45;;
25988;SDS011;13778;48.236;9.894;2023-09-08T11:19:48;10.98;;;8.57;;
25988;SDS011;13778;48.236;9.894;2023-09-08T11:22:39;10.63;;;8.38;;
25988;SDS011;13778;48.236;9.894;2023-09-08T11:25:32;10.87;;;8.07;;
25988;SDS011;13778;48.236;9.894;2023-09-08T11:28:23;9.43;;;7.63;;
25988;SDS011;13778;48.236;9.894;2023-09-08T11:31:13;10.38;;;9.00;;
25988;SDS011;13778;48.236;9.894;2023-09-08T11:34:04;10.63;;;9.25;;
25988;SDS011;13778;48.236;9.894;2023-09-08T11:36:56;9.65;;;8.68;;
25988;SDS011;13778;48.236;9.894;2023-09-08T11:39:47;10.65;;;8.77;;
25988;SDS011;13778;48.236;9.894;2023-09-08T11:42:39;8.95;;;8.02;;
25988;SDS011;13778;48.236;9.894;2023-09-08T11:45:34;10.13;;;8.23;;
25988;SDS011;13778;48.236;9.894;2023-09-08T11:48:24;11.45;;;7.45;;
25988;SDS011;13778;48.236;9.894;2023-09-08T11:51:15;11.82;;;8.23;;
25988;SDS011;13778;48.236;9.894;2023-09-08T11:54:05;12.00;;;8.02;;
25988;SDS011;13778;48.236;9.894;2023-09-08T11:56:56;8.70;;;7.88;;
25988;SDS011;13778;48.236;9.894;2023-09-08T11:59:47;12.45;;;7.72;;
25988;SDS011;13778;48.236;9.894;2023-09-08T12:02:38;8.57;;;7.60;;
25988;SDS011;13778;48.236;9.894;2023-09-08T12:05:28;9.45;;;7.90;;
25988;SDS011;13778;48.236;9.894;2023-09-08T12:08:19;12.43;;;8.65;;
25988;SDS011;13778;48.236;9.894;2023-09-08T12:11:10;8.52;;;7.00;;
25988;SDS011;13778;48.236;9.894;2023-09-08T12:14:01;10.57;;;7.50;;
25988;SDS011;13778;48.236;9.894;2023-09-08T12:16:54;12.00;;;7.28;;
25988;SDS011;13778;48.236;9.894;2023-09-08T12:19:54;9.75;;;7.72;;
25988;SDS011;13778;48.236;9.894;2023-09-08T12:22:48;9.48;;;7.82;;
25988;SDS011;13778;48.236;9.894;2023-09-08T12:25:44;10.80;;;8.07;;
25988;SDS011;13778;48.236;9.894;2023-09-08T12:28:34;12.40;;;7.63;;
25988;SDS011;13778;48.236;9.894;2023-09-08T12:31:24;13.02;;;7.50;;
25988;SDS011;13778;48.236;9.894;2023-09-08T12:34:16;11.18;;;7.97;;
25988;SDS011;13778;48.236;9.894;2023-09-08T12:37:07;8.60;;;7.78;;
25988;SDS011;13778;48.236;9.894;2023-09-08T12:39:59;10.15;;;7.65;;
25988;SDS011;13778;48.236;9.894;2023-09-08T12:42:50;9.77;;;7.70;;
25988;SDS011;13778;48.236;9.894;2023-09-08T12:45:41;10.30;;;7.72;;
25988;SDS011;13778;48.236;9.894;2023-09-08T12:48:31;7.80;;;7.10;;
25988;SDS011;13778;48.236;9.894;2023-09-08T12:51:23;12.45;;;8.15;;
25988;SDS011;13778;48.236;9.894;2023-09-08T12:54:14;8.30;;;7.03;;
25988;SDS011;13778;48.236;9.894;2023-09-08T12:57:04;9.48;;;7.93;;
25988;SDS011;13778;48.236;9.894;2023-09-08T12:59:56;8.50;;;7.63;;
25988;SDS011;13778;48.236;9.894;2023-09-08T13:02:46;9.90;;;7.68;;
25988;SDS011;13778;48.236;9.894;2023-09-08T13:05:36;7.85;;;7.15;;
25988;SDS011;13778;48.236;9.894;2023-09-08T13:08:29;8.40;;;7.30;;
25988;SDS011;13778;48.236;9.894;2023-09-08T13:11:19;8.60;;;7.90;;
25988;SDS011;13778;48.236;9.894;2023-09-08T13:14:10;10.75;;;8.35;;
25988;SDS011;13778;48.236;9.894;2023-09-08T13:17:00;9.05;;;7.45;;
25988;SDS011;13778;48.236;9.894;2023-09-08T13:19:51;8.80;;;6.50;;
25988;SDS011;13778;48.236;9.894;2023-09-08T13:22:42;10.98;;;7.32;;
25988;SDS011;13778;48.236;9.894;2023-09-08T13:25:34;10.18;;;7.90;;
25988;SDS011;13778;48.236;9.894;2023-09-08T13:28:25;8.18;;;7.45;;
25988;SDS011;13778;48.236;9.894;2023-09-08T13:31:15;8.52;;;7.68;;
25988;SDS011;13778;48.236;9.894;2023-09-08T13:34:06;8.80;;;7.55;;
25988;SDS011;13778;48.236;9.894;2023-09-08T13:39:47;11.13;;;7.00;;
25988;SDS011;13778;48.236;9.894;2023-09-08T13:42:39;10.25;;;6.90;;
25988;SDS011;13778;48.236;9.894;2023-09-08T13:45:29;10.18;;;6.70;;
25988;SDS011;13778;48.236;9.894;2023-09-08T13:48:20;9.80;;;7.25;;
25988;SDS011;13778;48.236;9.894;2023-09-08T13:51:11;10.82;;;7.28;;
25988;SDS011;13778;48.236;9.894;2023-09-08T13:54:01;7.57;;;6.80;;
25988;SDS011;13778;48.236;9.894;2023-09-08T13:56:57;10.75;;;7.05;;
25988;SDS011;13778;48.236;9.894;2023-09-08T13:59:49;8.68;;;7.47;;
25988;SDS011;13778;48.236;9.894;2023-09-08T14:02:39;8.98;;;7.38;;
25988;SDS011;13778;48.236;9.894;2023-09-08T14:05:31;7.75;;;6.70;;
25988;SDS011;13778;48.236;9.894;2023-09-08T14:08:21;7.50;;;6.65;;
25988;SDS011;13778;48.236;9.894;2023-09-08T14:11:12;8.07;;;6.05;;
25988;SDS011;13778;48.236;9.894;2023-09-08T14:14:02;7.72;;;6.90;;
25988;SDS011;13778;48.236;9.894;2023-09-08T14:16:54;8.25;;;7.38;;
25988;SDS011;13778;48.236;9.894;2023-09-08T14:22:34;10.07;;;7.43;;
25988;SDS011;13778;48.236;9.894;2023-09-08T14:25:25;8.05;;;7.00;;
25988;SDS011;13778;48.236;9.894;2023-09-08T14:28:15;10.70;;;6.85;;
25988;SDS011;13778;48.236;9.894;2023-09-08T14:31:06;6.75;;;6.10;;
25988;SDS011;13778;48.236;9.894;2023-09-08T14:33:58;7.90;;;6.68;;
25988;SDS011;13778;48.236;9.894;2023-09-08T14:39:38;8.07;;;7.05;;
25988;SDS011;13778;48.236;9.894;2023-09-08T14:42:29;8.68;;;6.35;;
25988;SDS011;13778;48.236;9.894;2023-09-08T14:45:19;7.32;;;6.57;;
25988;SDS011;13778;48.236;9.894;2023-09-08T14:48:10;8.68;;;7.07;;
25988;SDS011;13778;48.236;9.894;2023-09-08T14:51:01;7.53;;;6.80;;
25988;SDS011;13778;48.236;9.894;2023-09-08T14:53:52;7.05;;;6.45;;
25988;SDS011;13778;48.236;9.894;2023-09-08T14:56:42;12.38;;;7.07;;
25988;SDS011;13778;48.236;9.894;2023-09-08T14:59:33;7.05;;;6.35;;
25988;SDS011;13778;48.236;9.894;2023-09-08T15:02:23;9.50;;;7.22;;
25988;SDS011;13778;48.236;9.894;2023-09-08T15:05:14;9.50;;;6.30;;
25988;SDS011;13778;48.236;9.894;2023-09-08T15:08:06;8.95;;;7.15;;
25988;SDS011;13778;48.236;9.894;2023-09-08T15:10:56;9.32;;;6.15;;
25988;SDS011;13778;48.236;9.894;2023-09-08T15:13:47;7.70;;;6.35;;
25988;SDS011;13778;48.236;9.894;2023-09-08T15:16:37;7.38;;;5.88;;
25988;SDS011;13778;48.236;9.894;2023-09-08T15:19:28;7.93;;;6.65;;
25988;SDS011;13778;48.236;9.894;2023-09-08T15:22:19;7.50;;;6.70;;
25988;SDS011;13778;48.236;9.894;2023-09-08T15:25:10;10.27;;;6.50;;
25988;SDS011;13778;48.236;9.894;2023-09-08T15:28:01;8.48;;;6.22;;
25988;SDS011;13778;48.236;9.894;2023-09-08T15:30:52;7.10;;;6.38;;
25988;SDS011;13778;48.236;9.894;2023-09-08T15:33:42;6.82;;;6.10;;
25988;SDS011;13778;48.236;9.894;2023-09-08T15:36:33;7.47;;;6.50;;
25988;SDS011;13778;48.236;9.894;2023-09-08T15:39:23;8.02;;;6.05;;
25988;SDS011;13778;48.236;9.894;2023-09-08T15:42:15;10.15;;;6.47;;
25988;SDS011;13778;48.236;9.894;2023-09-08T15:47:55;7.80;;;6.35;;
25988;SDS011;13778;48.236;9.894;2023-09-08T15:50:45;6.95;;;6.25;;
25988;SDS011;13778;48.236;9.894;2023-09-08T15:53:36;6.80;;;6.10;;
25988;SDS011;13778;48.236;9.894;2023-09-08T15:56:26;9.25;;;7.07;;
25988;SDS011;13778;48.236;9.894;2023-09-08T15:59:18;7.55;;;6.15;;
25988;SDS011;13778;48.236;9.894;2023-09-08T16:02:10;9.27;;;6.57;;
25988;SDS011;13778;48.236;9.894;2023-09-08T16:05:01;9.80;;;6.32;;
25988;SDS011;13778;48.236;9.894;2023-09-08T16:07:51;7.43;;;6.55;;
25988;SDS011;13778;48.236;9.894;2023-09-08T16:10:42;7.50;;;6.47;;
25988;SDS011;13778;48.236;9.894;2023-09-08T16:13:32;9.93;;;7.07;;
25988;SDS011;13778;48.236;9.894;2023-09-08T16:16:24;10.85;;;6.80;;
25988;SDS011;13778;48.236;9.894;2023-09-08T16:19:14;7.90;;;6.85;;
25988;SDS011;13778;48.236;9.894;2023-09-08T16:22:06;7.43;;;6.55;;
25988;SDS011;13778;48.236;9.894;2023-09-08T16:24:56;10.63;;;6.85;;
25988;SDS011;13778;48.236;9.894;2023-09-08T16:27:47;8.50;;;6.07;;
25988;SDS011;13778;48.236;9.894;2023-09-08T16:30:37;7.68;;;6.55;;
25988;SDS011;13778;48.236;9.894;2023-09-08T16:33:29;8.48;;;6.50;;
25988;SDS011;13778;48.236;9.894;2023-09-08T16:36:19;9.02;;;6.70;;
25988;SDS011;13778;48.236;9.894;2023-09-08T16:39:09;6.88;;;6.13;;
25988;SDS011;13778;48.236;9.894;2023-09-08T16:42:00;7.28;;;6.18;;
25988;SDS011;13778;48.236;9.894;2023-09-08T16:44:50;9.30;;;6.65;;
25988;SDS011;13778;48.236;9.894;2023-09-08T16:47:40;7.00;;;5.90;;
25988;SDS011;13778;48.236;9.894;2023-09-08T16:50:32;9.25;;;6.75;;
25988;SDS011;13778;48.236;9.894;2023-09-08T16:53:22;8.73;;;6.32;;
25988;SDS011;13778;48.236;9.894;2023-09-08T16:56:13;8.63;;;6.57;;
25988;SDS011;13778;48.236;9.894;2023-09-08T16:59:03;10.38;;;6.60;;
25988;SDS011;13778;48.236;9.894;2023-09-08T17:01:53;7.35;;;6.65;;
25988;SDS011;13778;48.236;9.894;2023-09-08T17:04:44;11.25;;;6.60;;
25988;SDS011;13778;48.236;9.894;2023-09-08T17:07:36;8.00;;;6.90;;
25988;SDS011;13778;48.236;9.894;2023-09-08T17:10:27;10.95;;;6.18;;
25988;SDS011;13778;48.236;9.894;2023-09-08T17:13:17;10.38;;;7.20;;
25988;SDS011;13778;48.236;9.894;2023-09-08T17:16:08;8.85;;;6.47;;
25988;SDS011;13778;48.236;9.894;2023-09-08T17:18:58;7.47;;;6.20;;
25988;SDS011;13778;48.236;9.894;2023-09-08T17:21:48;9.70;;;6.30;;
25988;SDS011;13778;48.236;9.894;2023-09-08T17:24:41;10.82;;;7.07;;
25988;SDS011;13778;48.236;9.894;2023-09-08T17:27:31;12.15;;;7.00;;
25988;SDS011;13778;48.236;9.894;2023-09-08T17:30:21;11.73;;;8.30;;
25988;SDS011;13778;48.236;9.894;2023-09-08T17:33:12;10.35;;;7.43;;
25988;SDS011;13778;48.236;9.894;2023-09-08T17:36:03;9.55;;;7.68;;